Time;durP1;ratioP1;P1;durP2;ratioP2;P2;SDS_P1;SDS_P2;PMS_P1;PMS_P2;Temp;Humidity;BMP_temperature;BMP_pressure;BME280_temperature;BME280_humidity;BME280_pressure;Samples;Min_cycle;Max_cycle;Signal;HPM_P1;HPM_P2
2022/11/21 00:00:35;;;;;;;22.52;15.43;;;1.50;99.90;;;;;;5108267;28;20076;-79
2022/11/21 00:03:01;;;;;;;23.15;15.30;;;1.40;99.90;;;;;;5106769;28;20048;-78
2022/11/21 00:05:28;;;;;;;27.50;15.75;;;1.40;99.90;;;;;;5105343;28;20050;-78
2022/11/21 00:07:54;;;;;;;21.13;14.57;;;1.40;99.90;;;;;;5106611;28;20044;-78
2022/11/21 00:10:20;;;;;;;24.92;15.90;;;1.50;99.90;;;;;;5104238;28;20051;-79
2022/11/21 00:12:46;;;;;;;25.40;16.85;;;1.50;99.90;;;;;;5099626;28;20040;-78
2022/11/21 00:15:11;;;;;;;23.60;15.23;;;1.50;99.90;;;;;;5107453;28;20082;-79
2022/11/21 00:17:37;;;;;;;23.02;15.52;;;1.50;99.90;;;;;;5107798;28;20073;-78
2022/11/21 00:20:03;;;;;;;26.50;16.65;;;1.50;99.90;;;;;;5107485;28;20152;-79
2022/11/21 00:22:30;;;;;;;24.80;16.20;;;1.50;99.90;;;;;;5107755;28;20043;-78
2022/11/21 00:24:55;;;;;;;25.33;16.50;;;1.50;99.90;;;;;;5109101;28;20043;-79
2022/11/21 00:27:21;;;;;;;28.48;16.40;;;1.40;99.90;;;;;;5107829;28;20413;-78
2022/11/21 00:29:47;;;;;;;24.33;15.32;;;1.40;99.90;;;;;;5109849;28;20090;-79
2022/11/21 00:32:12;;;;;;;23.90;15.13;;;1.50;99.90;;;;;;5108630;28;20704;-78
2022/11/21 00:34:38;;;;;;;22.90;14.07;;;1.40;99.90;;;;;;5107070;28;20036;-79
2022/11/21 00:37:03;;;;;;;23.92;14.90;;;1.30;99.90;;;;;;5107049;28;20112;-78
2022/11/21 00:39:29;;;;;;;26.25;16.20;;;1.30;99.90;;;;;;5124977;28;20076;-79
2022/11/21 00:41:54;;;;;;;23.35;15.35;;;1.20;99.90;;;;;;5107046;28;20036;-78
2022/11/21 00:44:20;;;;;;;24.38;15.20;;;1.20;99.90;;;;;;5108568;28;20087;-78
2022/11/21 00:46:45;;;;;;;25.52;16.60;;;1.20;99.90;;;;;;5109189;28;20421;-79
2022/11/21 00:49:11;;;;;;;22.63;15.57;;;1.10;99.90;;;;;;5108389;28;20405;-79
2022/11/21 00:51:36;;;;;;;24.70;15.02;;;1.20;99.90;;;;;;5106743;28;20413;-79
2022/11/21 00:54:05;;;;;;;25.95;15.98;;;1.20;99.90;;;;;;5092068;28;20035;-79
2022/11/21 00:56:31;;;;;;;22.63;14.15;;;1.10;99.90;;;;;;5123182;28;21216;-79
2022/11/21 00:58:56;;;;;;;24.70;14.63;;;1.10;99.90;;;;;;5108552;28;20050;-79
2022/11/21 01:01:22;;;;;;;24.05;15.65;;;1.10;99.90;;;;;;5072170;28;1026449;-79
2022/11/21 01:03:47;;;;;;;28.40;16.83;;;1.50;99.90;;;;;;5105466;28;20114;-79
2022/11/21 01:06:14;;;;;;;22.00;15.07;;;1.20;99.90;;;;;;5109878;28;20081;-79
2022/11/21 01:08:42;;;;;;;23.95;16.45;;;1.20;99.90;;;;;;5110383;28;20147;-79
2022/11/21 01:11:12;;;;;;;25.75;16.13;;;1.10;99.90;;;;;;5107021;28;20517;-79
2022/11/21 01:13:38;;;;;;;24.00;15.18;;;1.20;99.90;;;;;;5104877;28;20507;-78
2022/11/21 01:16:06;;;;;;;25.40;16.05;;;1.30;99.90;;;;;;5107139;28;20054;-79
2022/11/21 01:18:32;;;;;;;23.95;15.15;;;1.10;99.90;;;;;;5108220;28;20072;-79
2022/11/21 01:20:59;;;;;;;27.15;17.02;;;1.20;99.90;;;;;;5108644;28;20047;-79
2022/11/21 01:23:26;;;;;;;25.13;15.48;;;1.10;99.90;;;;;;5107586;28;20154;-78
2022/11/21 01:25:51;;;;;;;24.42;15.18;;;1.30;99.90;;;;;;5105953;28;20056;-79
2022/11/21 01:28:17;;;;;;;23.17;14.95;;;1.20;99.90;;;;;;5104476;28;20047;-79
2022/11/21 01:30:42;;;;;;;22.77;15.40;;;1.30;99.90;;;;;;5108651;28;20051;-78
2022/11/21 01:33:08;;;;;;;23.65;15.30;;;1.30;99.90;;;;;;5107093;28;20036;-79
2022/11/21 01:35:33;;;;;;;24.05;15.70;;;1.60;99.90;;;;;;5107274;28;20044;-78
2022/11/21 01:37:59;;;;;;;22.60;14.65;;;1.30;99.90;;;;;;5105982;28;20063;-79
2022/11/21 01:40:24;;;;;;;23.88;16.33;;;1.30;99.90;;;;;;5107394;28;20490;-78
2022/11/21 01:43:10;;;;;;;21.45;15.70;;;1.30;99.90;;;;;;5103669;28;20405;-79
2022/11/21 01:46:07;;;;;;;24.60;14.43;;;1.10;99.90;;;;;;5107123;28;20406;-79
2022/11/21 01:48:44;;;;;;;24.80;16.00;;;1.30;99.90;;;;;;5108734;28;20051;-79
2022/11/21 01:51:34;;;;;;;25.70;15.02;;;1.30;99.90;;;;;;5106064;28;20059;-79
2022/11/21 01:54:22;;;;;;;25.73;16.33;;;1.20;99.90;;;;;;5107658;28;20039;-78
2022/11/21 01:57:12;;;;;;;25.17;15.45;;;1.20;99.90;;;;;;5086656;28;20044;-79
2022/11/21 01:59:46;;;;;;;22.55;15.05;;;1.30;99.90;;;;;;5088065;28;20056;-79
2022/11/21 02:02:16;;;;;;;23.67;15.20;;;1.30;99.90;;;;;;5089193;28;20047;-79
2022/11/21 02:04:43;;;;;;;24.13;16.13;;;1.00;99.90;;;;;;5107505;28;20059;-79
2022/11/21 02:07:11;;;;;;;25.65;16.55;;;1.20;99.90;;;;;;5107566;28;20427;-79
2022/11/21 02:09:42;;;;;;;23.88;14.95;;;0.70;99.90;;;;;;5105868;28;20090;-78
2022/11/21 02:12:21;;;;;;;24.55;15.55;;;1.10;99.90;;;;;;5104950;28;20040;-78
2022/11/21 02:14:47;;;;;;;25.00;16.50;;;1.30;99.90;;;;;;5090771;28;20048;-79
2022/11/21 02:17:13;;;;;;;25.85;16.25;;;1.10;99.90;;;;;;5107387;28;20054;-79
2022/11/21 02:19:51;;;;;;;22.65;15.23;;;1.00;99.90;;;;;;5105432;28;20057;-79
2022/11/21 02:22:37;;;;;;;26.05;16.30;;;1.00;99.90;;;;;;5104670;28;20474;-79
2022/11/21 02:25:20;;;;;;;25.75;15.90;;;1.30;99.90;;;;;;5106440;28;20621;-79
2022/11/21 02:27:49;;;;;;;22.17;14.25;;;1.20;99.90;;;;;;5103233;28;20039;-79
2022/11/21 02:30:16;;;;;;;24.55;15.75;;;1.20;99.90;;;;;;5106244;28;20047;-79
2022/11/21 02:32:46;;;;;;;20.65;14.40;;;0.90;99.90;;;;;;5107052;28;20035;-78
2022/11/21 02:35:17;;;;;;;23.88;15.07;;;1.10;99.90;;;;;;5108416;28;20036;-79
2022/11/21 02:37:46;;;;;;;24.83;16.20;;;1.10;99.90;;;;;;5105632;28;20043;-78
2022/11/21 02:40:16;;;;;;;24.27;15.75;;;0.90;99.90;;;;;;5107285;28;20409;-79
2022/11/21 02:42:50;;;;;;;25.65;15.88;;;0.90;99.90;;;;;;5101140;28;20042;-78
2022/11/21 02:45:21;;;;;;;24.90;15.32;;;0.70;99.90;;;;;;5105692;28;20050;-78
2022/11/21 02:47:51;;;;;;;22.50;14.55;;;0.70;99.90;;;;;;5104692;28;20040;-78
2022/11/21 02:50:31;;;;;;;25.17;15.52;;;0.00;99.90;;;;;;5106137;28;20043;-78
2022/11/21 02:52:56;;;;;;;26.77;15.88;;;0.50;99.90;;;;;;5100286;28;20058;-78
2022/11/21 02:55:23;;;;;;;24.48;15.45;;;0.50;99.90;;;;;;5107325;28;20044;-78
2022/11/21 02:57:49;;;;;;;25.25;15.20;;;0.50;99.90;;;;;;5105359;28;20043;-78
2022/11/21 03:00:15;;;;;;;23.08;14.95;;;0.40;99.90;;;;;;5105796;28;20039;-79
2022/11/21 03:02:41;;;;;;;22.48;14.60;;;0.40;99.90;;;;;;5103912;28;20106;-78
2022/11/21 03:05:08;;;;;;;22.52;14.75;;;0.60;99.90;;;;;;5104726;28;20580;-78
2022/11/21 03:07:34;;;;;;;22.30;14.00;;;0.20;99.90;;;;;;5105447;28;20580;-78
2022/11/21 03:10:00;;;;;;;25.65;15.00;;;0.10;99.90;;;;;;5105978;28;20121;-78
2022/11/21 03:12:25;;;;;;;25.48;15.48;;;0.10;99.90;;;;;;5103881;28;20039;-78
2022/11/21 03:14:51;;;;;;;26.15;15.18;;;-0.10;99.90;;;;;;5104054;28;20036;-78
2022/11/21 03:17:17;;;;;;;26.35;15.68;;;0.20;99.90;;;;;;5105468;28;20048;-78
2022/11/21 03:19:42;;;;;;;24.80;15.27;;;0.10;99.90;;;;;;5107029;28;20118;-78
2022/11/21 03:22:08;;;;;;;23.27;14.48;;;-0.20;99.90;;;;;;5105136;28;20535;-78
2022/11/21 03:24:34;;;;;;;27.17;17.25;;;0.10;99.90;;;;;;5088079;28;20047;-78
2022/11/21 03:26:59;;;;;;;28.13;17.30;;;-0.30;99.90;;;;;;5104184;28;20117;-78
2022/11/21 03:29:25;;;;;;;26.08;15.57;;;-0.30;99.90;;;;;;5106299;28;20082;-78
2022/11/21 03:31:50;;;;;;;24.45;16.85;;;-0.30;99.90;;;;;;5107835;28;20039;-78
2022/11/21 03:34:16;;;;;;;27.73;16.80;;;-0.40;99.90;;;;;;5104519;28;20470;-78
2022/11/21 03:36:41;;;;;;;28.30;17.33;;;-0.30;99.90;;;;;;5107107;28;20061;-78
2022/11/21 03:39:07;;;;;;;24.83;14.77;;;-0.20;99.90;;;;;;5120210;28;20407;-77
2022/11/21 03:41:34;;;;;;;23.95;15.57;;;-0.40;99.90;;;;;;5104625;28;20043;-78
2022/11/21 03:44:05;;;;;;;26.95;16.45;;;-0.40;99.90;;;;;;5088971;28;20478;-78
2022/11/21 03:46:33;;;;;;;24.17;15.45;;;-0.40;99.90;;;;;;5102901;28;20032;-77
2022/11/21 03:49:01;;;;;;;24.02;15.45;;;-0.40;99.90;;;;;;5105775;28;20074;-77
2022/11/21 03:51:27;;;;;;;24.70;15.07;;;-0.60;99.90;;;;;;5106674;28;20047;-77
2022/11/21 03:53:53;;;;;;;22.75;15.10;;;-0.50;99.90;;;;;;5108323;28;20043;-77
2022/11/21 03:56:18;;;;;;;23.60;14.85;;;-0.70;99.90;;;;;;5090651;28;20122;-77
2022/11/21 03:58:44;;;;;;;28.20;16.15;;;-0.40;99.90;;;;;;5110306;28;20580;-77
2022/11/21 04:01:12;;;;;;;25.23;15.32;;;-0.90;99.90;;;;;;5107957;28;20108;-77
2022/11/21 04:03:39;;;;;;;25.38;14.88;;;-0.80;99.90;;;;;;5109666;28;20048;-77
2022/11/21 04:06:05;;;;;;;24.38;14.85;;;-0.80;99.90;;;;;;5107545;28;20044;-77
2022/11/21 04:08:30;;;;;;;23.73;14.43;;;-0.90;99.90;;;;;;5109087;28;20108;-77
2022/11/21 04:10:56;;;;;;;27.48;16.20;;;-0.90;99.90;;;;;;5107319;28;20047;-77
2022/11/21 04:13:22;;;;;;;24.92;15.43;;;-0.80;99.90;;;;;;5108632;28;20105;-77
2022/11/21 04:15:48;;;;;;;25.92;15.77;;;-0.70;99.90;;;;;;5108882;28;20040;-77
2022/11/21 04:18:13;;;;;;;26.83;15.82;;;-0.80;99.90;;;;;;5090501;28;20398;-77
2022/11/21 04:20:39;;;;;;;25.13;16.10;;;-1.00;99.90;;;;;;5109745;28;20039;-78
2022/11/21 04:23:05;;;;;;;29.30;17.60;;;-1.00;99.90;;;;;;5109498;28;20109;-77
2022/11/21 04:25:32;;;;;;;25.42;16.35;;;-0.90;99.90;;;;;;5109933;28;20114;-77
2022/11/21 04:28:02;;;;;;;29.25;17.08;;;-1.10;99.90;;;;;;5104949;28;20047;-78
2022/11/21 04:30:28;;;;;;;24.70;15.85;;;-0.80;99.90;;;;;;5107811;28;20418;-78
2022/11/21 04:32:55;;;;;;;26.15;17.05;;;-0.90;99.90;;;;;;5090586;28;20524;-77
2022/11/21 04:35:22;;;;;;;28.08;17.20;;;0.30;99.90;;;;;;5102004;28;20052;-77
2022/11/21 04:37:48;;;;;;;25.10;15.13;;;-1.40;99.90;;;;;;5094839;28;20036;-77
2022/11/21 04:40:14;;;;;;;26.42;15.73;;;-1.10;99.90;;;;;;5100164;28;20347;-77
2022/11/21 04:42:47;;;;;;;28.52;16.48;;;-1.00;99.90;;;;;;5108415;28;20050;-77
2022/11/21 04:45:14;;;;;;;27.65;16.58;;;-1.10;99.90;;;;;;5106964;28;20044;-77
2022/11/21 04:47:41;;;;;;;26.75;15.57;;;-1.20;99.90;;;;;;5108698;28;20086;-77
2022/11/21 04:50:09;;;;;;;23.70;15.23;;;-1.00;99.90;;;;;;5104652;28;20051;-77
2022/11/21 04:52:35;;;;;;;24.30;16.00;;;-1.10;99.90;;;;;;5107292;28;20043;-77
2022/11/21 04:55:00;;;;;;;25.40;16.17;;;-1.20;99.90;;;;;;5107562;28;20363;-77
2022/11/21 04:57:27;;;;;;;25.52;16.35;;;-1.30;99.90;;;;;;5110148;28;20049;-77
2022/11/21 04:59:53;;;;;;;23.58;15.88;;;-1.30;99.90;;;;;;5107524;28;20043;-77
2022/11/21 05:02:18;;;;;;;28.10;16.85;;;-1.20;99.90;;;;;;5109255;28;20727;-77
2022/11/21 05:04:44;;;;;;;26.38;16.13;;;-1.40;99.90;;;;;;5105554;28;20509;-77
2022/11/21 05:07:10;;;;;;;23.27;16.05;;;-1.30;99.90;;;;;;5107737;28;20051;-77
2022/11/21 05:09:35;;;;;;;24.70;15.68;;;-1.40;99.90;;;;;;5106865;28;20431;-77
2022/11/21 05:14:45;;;;;;;31.52;16.20;;;-1.40;99.90;;;;;;5107392;28;20051;-77
2022/11/21 05:17:10;;;;;;;24.70;14.82;;;-1.40;99.90;;;;;;5107491;28;20457;-77
2022/11/21 05:19:36;;;;;;;26.55;16.52;;;-1.60;99.90;;;;;;5105344;28;20055;-77
2022/11/21 05:22:01;;;;;;;25.25;15.10;;;-1.50;99.90;;;;;;5106409;28;20043;-77
2022/11/21 05:24:27;;;;;;;23.73;14.93;;;-1.60;99.90;;;;;;5108437;28;20063;-77
2022/11/21 05:26:53;;;;;;;24.20;15.10;;;-1.70;99.90;;;;;;5106666;28;20036;-77
2022/11/21 05:29:19;;;;;;;25.08;16.85;;;-1.60;99.90;;;;;;5105776;28;20134;-77
2022/11/21 05:31:44;;;;;;;28.20;17.27;;;-1.50;99.90;;;;;;5105340;28;20062;-77
2022/11/21 05:34:10;;;;;;;26.75;15.82;;;-1.70;99.90;;;;;;5108403;28;20048;-77
2022/11/21 05:36:35;;;;;;;25.50;15.75;;;-1.30;99.90;;;;;;5106563;28;20050;-77
2022/11/21 05:39:01;;;;;;;23.65;14.55;;;-1.60;99.90;;;;;;5090660;28;20054;-77
2022/11/21 05:41:29;;;;;;;25.02;15.57;;;-1.60;99.90;;;;;;5107321;28;20035;-76
2022/11/21 05:43:55;;;;;;;26.50;16.35;;;-1.60;99.90;;;;;;5107836;28;20513;-76
2022/11/21 05:46:23;;;;;;;24.92;14.50;;;-1.70;99.90;;;;;;5106694;28;20051;-77
2022/11/21 05:48:50;;;;;;;25.40;15.30;;;-1.60;99.90;;;;;;5106940;28;20096;-76
2022/11/21 05:51:16;;;;;;;25.33;14.73;;;-1.40;99.90;;;;;;5106445;28;20890;-76
2022/11/21 05:53:42;;;;;;;24.08;14.98;;;-1.70;99.90;;;;;;5105089;28;20051;-76
2022/11/21 05:56:13;;;;;;;29.15;16.65;;;-1.80;99.90;;;;;;5106197;28;20043;-77
2022/11/21 05:58:39;;;;;;;28.23;17.38;;;-1.70;99.90;;;;;;5109053;28;20563;-77
2022/11/21 06:01:07;;;;;;;28.83;16.77;;;-1.80;99.90;;;;;;5103881;28;20055;-77
2022/11/21 06:03:35;;;;;;;27.63;17.58;;;-1.60;99.90;;;;;;5105404;28;20096;-77
2022/11/21 06:06:21;;;;;;;30.20;16.65;;;-1.80;99.90;;;;;;5107045;28;20054;-77
2022/11/21 06:08:46;;;;;;;25.48;14.93;;;-1.80;99.90;;;;;;5106008;28;20079;-77
2022/11/21 06:11:15;;;;;;;28.25;17.73;;;-1.80;99.90;;;;;;5104705;28;20859;-77
2022/11/21 06:13:41;;;;;;;31.35;17.77;;;-1.90;99.90;;;;;;5096714;28;20493;-77
2022/11/21 06:16:12;;;;;;;28.83;17.60;;;-1.90;99.90;;;;;;5107283;28;20039;-77
2022/11/21 06:18:43;;;;;;;30.13;17.42;;;-1.90;99.90;;;;;;5106540;28;20039;-77
2022/11/21 06:21:16;;;;;;;28.77;17.98;;;-2.00;99.90;;;;;;5106597;28;20051;-77
2022/11/21 06:23:42;;;;;;;30.52;18.50;;;-1.90;99.90;;;;;;5089862;28;20121;-77
2022/11/21 06:26:12;;;;;;;28.90;18.35;;;-1.90;99.90;;;;;;5083502;28;20051;-77
2022/11/21 06:28:39;;;;;;;33.63;19.67;;;-1.90;99.90;;;;;;5104436;28;20111;-77
2022/11/21 06:31:17;;;;;;;33.78;19.88;;;-1.90;99.90;;;;;;5104605;28;20036;-77
2022/11/21 06:33:43;;;;;;;32.60;19.50;;;-1.90;99.90;;;;;;5102784;28;20446;-77
2022/11/21 06:36:11;;;;;;;32.83;19.70;;;-1.80;99.90;;;;;;5106256;28;20131;-77
2022/11/21 06:38:37;;;;;;;33.08;20.15;;;-1.90;99.90;;;;;;5106361;28;20123;-77
2022/11/21 06:41:11;;;;;;;37.42;21.55;;;-1.00;99.90;;;;;;5105964;28;20135;-78
2022/11/21 06:43:37;;;;;;;36.17;20.90;;;-1.80;99.90;;;;;;5105653;28;20055;-77
2022/11/21 06:46:03;;;;;;;33.38;20.23;;;-1.90;99.90;;;;;;5105422;27;20575;-78
2022/11/21 06:48:33;;;;;;;33.75;20.13;;;-1.90;99.90;;;;;;5108103;27;20043;-78
2022/11/21 06:51:06;;;;;;;34.05;20.67;;;-1.90;99.90;;;;;;5106413;28;20048;-77
2022/11/21 06:53:33;;;;;;;32.90;18.58;;;-1.90;99.90;;;;;;5106997;28;20070;-78
2022/11/21 06:56:00;;;;;;;34.85;20.45;;;-1.90;99.90;;;;;;5089680;28;20472;-77
2022/11/21 06:58:26;;;;;;;33.28;19.67;;;-1.90;99.90;;;;;;5106344;28;20055;-77
2022/11/21 07:00:52;;;;;;;34.75;19.08;;;-1.90;99.90;;;;;;5106977;28;20056;-78
2022/11/21 07:03:18;;;;;;;35.15;20.25;;;-1.90;99.90;;;;;;5104466;28;20382;-77
2022/11/21 07:05:43;;;;;;;35.55;18.83;;;-1.90;99.90;;;;;;5104945;28;20044;-78
2022/11/21 07:08:09;;;;;;;34.42;19.25;;;-1.90;99.90;;;;;;5090157;28;20128;-78
2022/11/21 07:10:34;;;;;;;36.00;21.20;;;-1.90;99.90;;;;;;5106326;28;20535;-77
2022/11/21 07:15:45;;;;;;;34.58;21.75;;;-2.00;99.90;;;;;;5105598;28;20497;-77
2022/11/21 07:18:11;;;;;;;35.08;21.20;;;-1.90;99.90;;;;;;5072871;28;20044;-78
2022/11/21 07:20:37;;;;;;;33.58;22.13;;;-1.90;99.90;;;;;;5102421;28;20097;-77
2022/11/21 07:23:03;;;;;;;34.55;21.40;;;-1.90;99.90;;;;;;5104906;28;20054;-77
2022/11/21 07:25:29;;;;;;;37.13;20.23;;;-2.00;99.90;;;;;;5102588;28;20048;-77
2022/11/21 07:27:57;;;;;;;34.95;20.13;;;-2.00;99.90;;;;;;5103732;28;20043;-78
2022/11/21 07:30:23;;;;;;;37.70;20.30;;;-1.80;99.90;;;;;;5110711;28;20058;-77
2022/11/21 07:32:57;;;;;;;35.28;20.88;;;-1.90;99.90;;;;;;5110674;28;20040;-77
2022/11/21 07:35:23;;;;;;;34.25;19.77;;;-1.90;99.90;;;;;;5109654;28;20079;-78
2022/11/21 07:37:49;;;;;;;38.72;20.15;;;-1.80;99.90;;;;;;5112021;27;20501;-77
2022/11/21 07:40:14;;;;;;;35.38;20.92;;;-1.70;99.90;;;;;;5111319;28;20043;-77
2022/11/21 07:42:40;;;;;;;38.72;20.88;;;-1.30;99.90;;;;;;5091394;28;20048;-78
2022/11/21 07:45:06;;;;;;;68.07;31.33;;;-1.60;99.90;;;;;;5109170;28;20126;-77
2022/11/21 07:47:32;;;;;;;55.25;27.92;;;-1.50;99.90;;;;;;5092889;28;20043;-77
2022/11/21 07:49:57;;;;;;;61.28;24.75;;;-1.50;99.90;;;;;;5109072;28;20028;-78
2022/11/21 07:52:24;;;;;;;43.03;23.08;;;-1.40;99.90;;;;;;5110680;28;20139;-77
2022/11/21 07:54:49;;;;;;;38.53;22.38;;;-1.40;99.90;;;;;;5110851;28;20127;-78
2022/11/21 07:57:15;;;;;;;41.15;22.80;;;-1.40;99.90;;;;;;5107969;28;20430;-78
2022/11/21 07:59:41;;;;;;;39.90;21.38;;;-1.40;99.90;;;;;;5110005;28;20085;-78
2022/11/21 08:02:12;;;;;;;37.80;20.27;;;-1.40;99.90;;;;;;5109699;28;20052;-78
2022/11/21 08:04:38;;;;;;;37.20;19.98;;;-1.40;99.90;;;;;;5109915;28;20517;-78
2022/11/21 08:07:03;;;;;;;34.67;19.88;;;-1.40;99.90;;;;;;5109803;28;20083;-78
2022/11/21 08:09:29;;;;;;;37.78;20.50;;;-1.40;99.90;;;;;;5108110;28;20051;-78
2022/11/21 08:11:54;;;;;;;35.00;20.05;;;-1.40;99.90;;;;;;5091325;28;20200;-78
2022/11/21 08:14:20;;;;;;;33.38;18.73;;;-1.40;99.90;;;;;;5108956;28;20043;-79
2022/11/21 08:16:45;;;;;;;38.35;20.17;;;-1.30;99.90;;;;;;5109115;28;20105;-78
2022/11/21 08:19:11;;;;;;;32.42;19.48;;;-1.20;99.90;;;;;;5109535;28;20051;-79
2022/11/21 08:21:36;;;;;;;37.03;19.52;;;-1.20;99.90;;;;;;5109221;28;20036;-79
2022/11/21 08:24:02;;;;;;;36.88;20.98;;;-1.10;99.90;;;;;;5108737;28;20047;-79
2022/11/21 08:26:28;;;;;;;34.42;19.88;;;-0.90;99.90;;;;;;5109963;28;20079;-79
2022/11/21 08:28:53;;;;;;;32.90;19.75;;;-1.10;99.90;;;;;;5110208;28;20047;-79
2022/11/21 08:31:19;;;;;;;37.83;20.50;;;-1.00;99.90;;;;;;5110118;28;20091;-79
2022/11/21 08:33:44;;;;;;;40.72;21.52;;;-1.00;99.90;;;;;;5108931;28;20132;-79
2022/11/21 08:36:10;;;;;;;38.05;20.80;;;-0.90;99.90;;;;;;5110224;28;20036;-79
2022/11/21 08:38:35;;;;;;;37.80;21.15;;;-0.80;99.90;;;;;;5092033;28;20143;-79
2022/11/21 08:43:45;;;;;;;36.72;21.30;;;-0.60;99.90;;;;;;5110455;28;20097;-79
2022/11/21 08:46:10;;;;;;;41.28;22.13;;;-0.40;99.90;;;;;;5108052;28;20056;-79
2022/11/21 08:48:36;;;;;;;40.83;21.73;;;-0.30;99.90;;;;;;5108744;28;20067;-79
2022/11/21 08:51:01;;;;;;;40.70;22.50;;;-0.20;99.90;;;;;;5108809;28;20050;-79
2022/11/21 08:53:27;;;;;;;48.33;22.50;;;-0.10;99.90;;;;;;5108533;28;20058;-79
2022/11/21 08:55:53;;;;;;;42.58;22.92;;;0.10;99.90;;;;;;5108068;28;20082;-79
2022/11/21 08:58:19;;;;;;;43.72;22.65;;;0.20;99.90;;;;;;5091597;28;20046;-80
2022/11/21 09:00:44;;;;;;;46.90;23.67;;;0.30;99.90;;;;;;5108605;28;20044;-80
2022/11/21 09:03:10;;;;;;;39.30;22.85;;;0.40;99.90;;;;;;5108696;28;20075;-80
2022/11/21 09:05:35;;;;;;;41.30;22.60;;;0.50;99.90;;;;;;5125778;27;20070;-80
2022/11/21 09:08:01;;;;;;;45.55;22.85;;;0.60;99.90;;;;;;5107269;28;20039;-80
2022/11/21 09:10:30;;;;;;;39.78;22.77;;;0.70;99.90;;;;;;5108102;28;20095;-80
2022/11/21 09:12:59;;;;;;;40.35;22.20;;;;;;;;;;5105858;28;20035;-80
2022/11/21 09:18:10;;;;;;;37.38;20.92;;;;;;;;;;5107291;28;20071;-80
2022/11/21 09:20:40;;;;;;;42.10;20.73;;;;;;;;;;5108358;27;20044;-80
2022/11/21 09:23:07;;;;;;;38.67;21.58;;;;;;;;;;5108435;27;20047;-82
2022/11/21 09:25:33;;;;;;;39.78;19.95;;;;;;;;;;5108428;28;20377;-82
2022/11/21 09:28:00;;;;;;;37.30;21.45;;;;;;;;;;5107320;28;20089;-82
2022/11/21 09:30:26;;;;;;;30.80;17.88;;;;;;;;;;5109730;28;20079;-81
2022/11/21 09:32:52;;;;;;;34.33;18.80;;;;;;;;;;5108826;27;20069;-82
2022/11/21 09:35:19;;;;;;;36.95;19.15;;;;;;;;;;5091347;28;20135;-81
2022/11/21 09:37:45;;;;;;;29.17;16.65;;;;;;;;;;5107083;28;20056;-80
2022/11/21 09:40:18;;;;;;;30.02;17.30;;;;;;;;;;5108632;28;20047;-80
2022/11/21 09:42:44;;;;;;;37.67;15.73;;;;;;;;;;5107614;27;20050;-80
2022/11/21 09:45:14;;;;;;;28.30;15.43;;;;;;;;;;5086761;28;20050;-80
2022/11/21 09:47:48;;;;;;;26.17;15.13;;;;;;;;;;5107769;28;20101;-81
2022/11/21 09:50:14;;;;;;;26.85;14.88;;;;;;;;;;5101817;27;20168;-81
2022/11/21 09:52:47;;;;;;;29.30;16.50;;;;;;;;;;5086015;28;20532;-81
2022/11/21 09:55:19;;;;;;;28.10;16.17;;;;;;;;;;5081801;28;20052;-81
2022/11/21 09:57:47;;;;;;;29.17;16.38;;;;;;;;;;5106492;28;20050;-80
2022/11/21 10:00:20;;;;;;;31.40;16.70;;;;;;;;;;5106420;28;20065;-81
2022/11/21 10:02:46;;;;;;;29.27;16.02;;;;;;;;;;5105306;28;20052;-80
2022/11/21 10:05:13;;;;;;;31.05;16.98;;;;;;;;;;5105178;28;20059;-82
2022/11/21 10:07:39;;;;;;;30.83;15.77;;;;;;;;;;5108515;28;20047;-81
2022/11/21 10:10:24;;;;;;;31.23;17.00;;;;;;;;;;5090718;28;20096;-81
2022/11/21 10:12:56;;;;;;;29.58;16.45;;;;;;;;;;5107241;28;20036;-82
2022/11/21 10:15:32;;;;;;;29.45;16.02;;;;;;;;;;5106106;28;20044;-82
2022/11/21 10:18:07;;;;;;;27.17;16.27;;;;;;;;;;5096891;28;20035;-82
2022/11/21 10:20:39;;;;;;;30.05;16.63;;;;;;;;;;5107582;28;20112;-83
2022/11/21 10:23:11;;;;;;;24.98;15.27;;;;;;;;;;5107384;28;20051;-83
2022/11/21 10:25:40;;;;;;;27.20;15.65;;;;;;;;;;5107084;28;20065;-83
2022/11/21 10:28:16;;;;;;;24.52;14.55;;;1.00;99.90;;;;;;5090165;28;20083;-82
2022/11/21 10:30:44;;;;;;;26.38;14.02;;;1.60;99.90;;;;;;5088693;28;20044;-82
2022/11/21 10:33:25;;;;;;;24.98;15.25;;;;;;;;;;5106785;28;20509;-81
2022/11/21 10:35:54;;;;;;;24.13;14.35;;;1.50;99.90;;;;;;5105465;28;20120;-83
2022/11/21 10:38:23;;;;;;;25.40;15.75;;;1.60;99.90;;;;;;5106902;28;20054;-81
2022/11/21 10:41:36;;;;;;;25.27;15.15;;;1.60;99.90;;;;;;5106031;28;20051;-82
2022/11/21 10:47:12;;;;;;;25.40;14.98;;;1.80;99.90;;;;;;5106508;28;20075;-82
2022/11/21 10:49:39;;;;;;;25.02;15.80;;;1.90;99.90;;;;;;5086675;28;20352;-83
2022/11/21 10:52:10;;;;;;;27.02;15.70;;;1.90;99.90;;;;;;5106491;28;20046;-82
2022/11/21 10:55:05;;;;;;;26.83;15.68;;;2.00;99.90;;;;;;5107098;28;20086;-83
2022/11/21 10:57:37;;;;;;;28.15;16.75;;;2.00;99.90;;;;;;5106499;28;20047;-82
2022/11/21 11:00:24;;;;;;;23.73;14.85;;;2.00;99.90;;;;;;5088920;28;20051;-84
2022/11/21 11:02:55;;;;;;;26.20;15.23;;;2.10;99.90;;;;;;5105946;27;20123;-83
2022/11/21 11:05:23;;;;;;;25.92;16.00;;;2.10;99.90;;;;;;5089484;28;20097;-82
2022/11/21 11:08:06;;;;;;;22.45;13.93;;;2.20;99.90;;;;;;5107331;28;20398;-82
2022/11/21 11:10:35;;;;;;;24.88;15.32;;;2.20;99.90;;;;;;5107846;28;20032;-82
2022/11/21 11:16:10;;;;;;;24.48;14.88;;;2.30;99.90;;;;;;5110954;28;20052;-83
2022/11/21 11:18:40;;;;;;;21.10;14.40;;;2.40;99.90;;;;;;5092877;28;20120;-84
2022/11/21 11:21:12;;;;;;;24.27;15.93;;;2.40;99.90;;;;;;5109676;28;20055;-82
2022/11/21 11:23:38;;;;;;;26.38;15.05;;;2.50;99.90;;;;;;5099050;28;20354;-83
2022/11/21 11:26:26;;;;;;;24.95;14.93;;;1.60;99.90;;;;;;5090639;28;20040;-83
2022/11/21 11:28:51;;;;;;;22.98;14.95;;;2.60;99.90;;;;;;5110406;28;20075;-84
2022/11/21 11:31:17;;;;;;;22.65;15.90;;;2.70;99.90;;;;;;5110456;28;20109;-83
2022/11/21 11:33:52;;;;;;;26.50;17.45;;;2.70;99.90;;;;;;5107066;28;20043;-83
2022/11/21 11:37:22;;;;;;;26.23;16.92;;;2.70;99.90;;;;;;5093779;28;20124;-82
2022/11/21 11:39:50;;;;;;;26.77;17.75;;;2.80;99.90;;;;;;5067528;28;20433;-83
2022/11/21 11:48:48;;;;;;;26.65;18.02;;;3.00;99.90;;;;;;5110491;28;20055;-83
2022/11/21 11:51:37;;;;;;;28.42;18.45;;;3.10;99.90;;;;;;5107864;28;20056;-84
2022/11/21 11:54:12;;;;;;;30.00;18.45;;;3.20;99.90;;;;;;5106461;28;20501;-82
2022/11/21 11:56:38;;;;;;;27.10;17.63;;;3.20;99.90;;;;;;5095734;28;20042;-83
2022/11/21 11:59:28;;;;;;;25.52;18.05;;;3.30;99.90;;;;;;5089940;28;20044;-82
2022/11/21 12:02:34;;;;;;;29.13;18.10;;;3.40;99.90;;;;;;5089545;28;20056;-82
2022/11/21 12:05:08;;;;;;;27.67;18.35;;;3.50;99.90;;;;;;5087457;28;20786;-82
2022/11/21 12:07:40;;;;;;;28.05;18.67;;;3.60;99.90;;;;;;5100042;28;20044;-83
2022/11/21 12:10:12;;;;;;;26.70;17.52;;;3.60;99.90;;;;;;5109663;28;20047;-83
2022/11/21 12:12:42;;;;;;;28.23;17.58;;;3.60;99.90;;;;;;5110496;28;20621;-83
2022/11/21 12:18:19;;;;;;;25.98;17.38;;;3.70;99.90;;;;;;5109793;28;20056;-83
2022/11/21 12:21:02;;;;;;;25.63;17.10;;;3.60;99.90;;;;;;5107295;28;20155;-83
2022/11/21 12:23:32;;;;;;;25.42;16.17;;;3.60;99.90;;;;;;5107686;28;20055;-82
2022/11/21 12:26:20;;;;;;;26.02;16.48;;;3.60;99.90;;;;;;5109485;28;20051;-83
2022/11/21 12:28:54;;;;;;;24.70;16.45;;;3.60;99.90;;;;;;5109145;28;20166;-83
2022/11/21 12:31:54;;;;;;;23.90;16.13;;;3.60;99.90;;;;;;5105599;28;20048;-83
2022/11/21 12:34:57;;;;;;;24.08;15.80;;;3.60;99.90;;;;;;5097138;28;20126;-83
2022/11/21 12:37:35;;;;;;;;;;;3.60;99.90;;;;;;5090037;28;20040;-81
2022/11/21 12:40:25;;;;;;;23.02;15.25;;;3.60;99.90;;;;;;5109049;28;19919;-82
2022/11/21 12:43:23;;;;;;;24.58;15.88;;;3.70;99.90;;;;;;5091526;28;20040;-83
2022/11/21 12:45:51;;;;;;;22.75;15.43;;;3.70;99.90;;;;;;5108995;28;20054;-82
2022/11/21 12:54:49;;;;;;;24.98;17.15;;;3.70;99.90;;;;;;5090307;28;20078;-83
2022/11/21 12:57:20;;;;;;;21.83;15.90;;;3.70;99.90;;;;;;5088782;28;20058;-83
2022/11/21 13:00:29;;;;;;;24.88;16.77;;;3.70;99.90;;;;;;5088733;28;20079;-82
2022/11/21 13:03:17;;;;;;;26.73;16.83;;;3.70;99.90;;;;;;5029307;28;20053;-82
2022/11/21 13:05:47;;;;;;;22.83;16.30;;;3.70;99.90;;;;;;5086409;28;20048;-82
2022/11/21 13:08:17;;;;;;;26.77;17.05;;;3.60;99.90;;;;;;5106078;28;20516;-82
2022/11/21 13:13:55;;;;;;;28.55;18.08;;;3.70;99.90;;;;;;5108896;28;20477;-82
2022/11/21 13:16:38;;;;;;;25.83;17.63;;;3.70;99.90;;;;;;5103963;28;20046;-81
2022/11/21 13:19:15;;;;;;;25.17;17.58;;;3.70;99.90;;;;;;5107337;28;20557;-81
2022/11/21 13:21:49;;;;;;;26.27;17.05;;;3.80;99.90;;;;;;5108753;28;20055;-81
2022/11/21 13:24:43;;;;;;;26.02;16.27;;;3.80;99.90;;;;;;5106084;28;21071;-81
2022/11/21 13:27:22;;;;;;;22.95;15.48;;;3.80;99.90;;;;;;5090516;28;20039;-81
2022/11/21 13:30:06;;;;;;;21.58;13.85;;;3.90;99.90;;;;;;5090357;28;20134;-81